createdAt,value
2024-02-21T00:00:06.598Z,490.47
2024-02-21T00:00:18.619Z,490.44
2024-02-21T00:00:30.629Z,490.47
2024-02-21T00:00:42.693Z,490.50
2024-02-21T00:00:54.632Z,490.54
2024-02-21T00:01:05.728Z,490.64
2024-02-21T00:01:16.658Z,490.69
2024-02-21T00:01:27.725Z,490.62
2024-02-21T00:01:39.674Z,490.71
2024-02-21T00:01:50.680Z,490.76
2024-02-21T00:02:01.664Z,490.81
2024-02-21T00:02:12.634Z,490.77
2024-02-21T00:02:24.590Z,490.73
2024-02-21T00:02:35.624Z,490.71
2024-02-21T00:02:47.588Z,490.77
2024-02-21T00:03:00.847Z,490.85
2024-02-21T00:03:11.604Z,490.93
2024-02-21T00:03:22.611Z,491.05
2024-02-21T00:03:33.667Z,491.12
2024-02-21T00:03:44.648Z,491.18
2024-02-21T00:03:55.626Z,491.23
2024-02-21T00:04:06.613Z,491.25
2024-02-21T00:04:18.651Z,491.24
2024-02-21T00:04:29.844Z,491.25
2024-02-21T00:04:40.892Z,491.20
2024-02-21T00:04:52.674Z,491.19
2024-02-21T00:05:04.731Z,491.24
2024-02-21T00:05:15.634Z,491.29
2024-02-21T00:05:26.626Z,491.33
2024-02-21T00:05:37.695Z,491.36
2024-02-21T00:05:49.599Z,491.42
2024-02-21T00:06:00.590Z,491.48
2024-02-21T00:06:11.592Z,491.49
2024-02-21T00:06:22.606Z,491.61
2024-02-21T00:06:34.607Z,491.57
2024-02-21T00:06:46.643Z,491.70
2024-02-21T00:07:58.196Z,491.89
2024-02-21T00:08:09.887Z,492.03
2024-02-21T00:08:20.825Z,491.90
2024-02-21T00:08:31.939Z,491.83
2024-02-21T00:08:43.818Z,491.88
2024-02-21T00:08:54.795Z,491.91
2024-02-21T00:09:05.756Z,491.95
2024-02-21T00:09:16.747Z,491.95
2024-02-21T00:09:27.730Z,491.93
2024-02-21T00:09:38.732Z,491.97
2024-02-21T00:09:49.719Z,491.97
2024-02-21T00:10:00.728Z,491.95
2024-02-21T00:10:11.749Z,491.95
2024-02-21T00:10:22.818Z,491.98
2024-02-21T00:10:34.772Z,492.07
2024-02-21T00:10:46.432Z,492.10
2024-02-21T00:10:57.906Z,492.11
2024-02-21T00:11:10.074Z,492.12
2024-02-21T00:11:20.781Z,492.12
2024-02-21T00:11:31.770Z,492.16
2024-02-21T00:11:42.868Z,492.17
2024-02-21T00:11:54.876Z,492.14
2024-02-21T00:12:06.741Z,492.16
2024-02-21T00:12:17.709Z,492.16
2024-02-21T00:12:28.787Z,492.16
2024-02-21T00:12:40.761Z,492.15
2024-02-21T00:12:51.748Z,492.19
2024-02-21T00:13:02.738Z,492.19
2024-02-21T00:13:13.796Z,492.20
2024-02-21T00:13:24.901Z,492.26
2024-02-21T00:13:36.802Z,492.24
2024-02-21T00:13:47.816Z,492.22
2024-02-21T00:14:05.765Z,492.22
2024-02-21T00:14:09.808Z,492.38
2024-02-21T00:14:21.846Z,492.39
2024-02-21T00:14:32.753Z,492.34
2024-02-21T00:14:43.746Z,492.34
2024-02-21T00:14:54.735Z,492.36
2024-02-21T00:15:16.809Z,492.47
2024-02-21T00:15:28.783Z,492.49
2024-02-21T00:15:40.748Z,492.42
2024-02-21T00:15:51.751Z,492.44
2024-02-21T00:16:02.793Z,492.46
2024-02-21T00:16:14.793Z,492.50
2024-02-21T00:16:25.749Z,492.55
2024-02-21T00:16:36.769Z,492.55
2024-02-21T00:16:48.792Z,492.54
2024-02-21T00:17:00.861Z,492.58
2024-02-21T00:17:12.858Z,492.51
2024-02-21T00:17:23.878Z,492.51
2024-02-21T00:17:35.804Z,492.54
2024-02-21T00:17:47.795Z,492.55
2024-02-21T00:17:59.909Z,492.58
2024-02-21T00:18:11.950Z,492.50
2024-02-21T00:18:26.721Z,492.56
2024-02-21T00:18:35.728Z,492.57
2024-02-21T00:18:46.765Z,492.58
2024-02-21T00:18:58.771Z,492.54
2024-02-21T00:20:56.182Z,492.37
2024-02-21T00:21:07.176Z,492.49
2024-02-21T00:21:18.204Z,492.53
2024-02-21T00:21:29.185Z,492.59
2024-02-21T00:21:40.233Z,492.59
2024-02-21T00:21:52.237Z,492.65
2024-02-21T00:22:03.233Z,492.70
2024-02-21T00:22:14.232Z,492.79
2024-02-21T00:22:25.205Z,492.78
2024-02-21T00:22:36.763Z,492.76
2024-02-21T00:22:48.800Z,492.79
2024-02-21T00:22:59.910Z,492.94
2024-02-21T00:23:10.790Z,493.05
2024-02-21T00:23:22.786Z,493.01
2024-02-21T00:23:34.789Z,492.91
2024-02-21T00:23:46.773Z,492.80
2024-02-21T00:23:58.805Z,492.92
2024-02-21T00:24:09.757Z,492.97
2024-02-21T00:24:21.747Z,492.93
2024-02-21T00:24:32.776Z,492.93
2024-02-21T00:24:44.750Z,492.84
2024-02-21T00:24:56.756Z,492.67
2024-02-21T00:25:07.927Z,492.70
2024-02-21T00:25:18.759Z,492.78
2024-02-21T00:25:29.932Z,492.83
2024-02-21T00:25:41.773Z,492.86
2024-02-21T00:25:52.810Z,493.09
2024-02-21T00:26:03.918Z,493.28
2024-02-21T00:26:15.772Z,493.36
2024-02-21T00:26:27.775Z,493.47
2024-02-21T00:26:39.784Z,493.63
2024-02-21T00:26:51.762Z,493.60
2024-02-21T00:27:03.773Z,493.49
2024-02-21T00:27:15.760Z,493.42
2024-02-21T00:27:26.796Z,493.34
2024-02-21T00:27:38.745Z,493.37
2024-02-21T00:27:49.772Z,493.21
2024-02-21T00:28:01.745Z,493.13
2024-02-21T00:28:12.899Z,493.08
2024-02-21T00:28:23.767Z,493.02
2024-02-21T00:28:35.870Z,493.03
2024-02-21T00:28:47.779Z,492.97
2024-02-21T00:28:58.925Z,492.96
2024-02-21T00:29:10.775Z,492.92
2024-02-21T00:29:22.763Z,492.78
2024-02-21T00:29:33.768Z,492.60
2024-02-21T00:29:44.774Z,492.59
2024-02-21T00:29:55.766Z,492.62
2024-02-21T00:30:07.783Z,492.73
2024-02-21T00:30:19.799Z,492.62
2024-02-21T00:30:31.770Z,492.64
2024-02-21T00:30:43.749Z,492.71
2024-02-21T00:30:54.766Z,492.79
2024-02-21T00:31:05.757Z,492.98
2024-02-21T00:31:17.763Z,493.07
2024-02-21T00:31:29.792Z,492.99
2024-02-21T00:31:41.839Z,492.93
2024-02-21T00:31:52.870Z,492.88
2024-02-21T00:32:04.755Z,492.82
2024-02-21T00:32:15.812Z,492.80
2024-02-21T00:32:27.813Z,492.74
2024-02-21T00:32:39.831Z,492.63
2024-02-21T00:32:51.836Z,492.80
2024-02-21T00:33:02.851Z,492.62
2024-02-21T00:33:13.859Z,492.66
2024-02-21T00:33:24.834Z,492.75
2024-02-21T00:33:35.804Z,492.87
2024-02-21T00:33:47.809Z,492.93
2024-02-21T00:33:59.834Z,492.89
2024-02-21T00:34:11.838Z,492.97
2024-02-21T00:34:22.880Z,492.97
2024-02-21T00:34:33.807Z,493.03
2024-02-21T00:34:44.761Z,493.06
2024-02-21T00:34:55.806Z,493.01
2024-02-21T00:35:07.357Z,492.97
2024-02-21T00:35:18.826Z,492.96
2024-02-21T00:35:29.830Z,493.09
2024-02-21T00:35:41.741Z,493.14
2024-02-21T00:35:52.781Z,493.18
2024-02-21T00:36:04.793Z,493.13
2024-02-21T00:36:16.861Z,493.14
2024-02-21T00:36:27.766Z,493.24
2024-02-21T00:36:39.752Z,493.34
2024-02-21T00:36:50.755Z,493.37
2024-02-21T00:37:01.884Z,493.47
2024-02-21T00:37:13.834Z,493.54
2024-02-21T00:37:25.744Z,493.48
2024-02-21T00:37:36.866Z,493.50
2024-02-21T00:37:48.818Z,493.54
2024-02-21T00:37:59.775Z,493.63
2024-02-21T00:38:11.776Z,493.59
2024-02-21T00:38:23.861Z,493.65
2024-02-21T00:38:35.834Z,493.72
2024-02-21T00:38:46.754Z,493.69
2024-02-21T00:38:58.752Z,493.62
2024-02-21T00:39:09.770Z,493.67
2024-02-21T00:39:21.750Z,493.50
2024-02-21T00:39:32.802Z,493.47
2024-02-21T00:39:43.770Z,493.57
2024-02-21T00:39:54.721Z,493.67
2024-02-21T00:40:05.745Z,493.64
2024-02-21T00:40:16.800Z,493.64
2024-02-21T00:40:27.766Z,493.67
2024-02-21T00:40:38.782Z,493.52
2024-02-21T00:40:50.822Z,493.44
2024-02-21T00:41:02.816Z,493.38
2024-02-21T00:41:14.787Z,493.42
2024-02-21T00:41:26.768Z,493.38
2024-02-21T00:41:38.785Z,493.36
2024-02-21T00:41:50.766Z,493.40
2024-02-21T00:42:02.739Z,493.32
2024-02-21T00:42:13.740Z,493.26
2024-02-21T00:42:24.757Z,493.22
2024-02-21T00:42:35.830Z,493.15
2024-02-21T00:42:46.776Z,493.15
2024-02-21T00:42:58.820Z,493.11
2024-02-21T00:43:09.813Z,493.16
2024-02-21T00:43:20.821Z,493.08
2024-02-21T00:43:32.834Z,493.01
2024-02-21T00:43:44.768Z,493.01
2024-02-21T00:43:56.825Z,493.03
2024-02-21T00:44:07.808Z,492.94
2024-02-21T00:44:19.814Z,492.86
2024-02-21T00:44:30.738Z,492.85
2024-02-21T00:44:41.774Z,492.97
2024-02-21T00:44:53.781Z,492.89
2024-02-21T00:45:05.753Z,492.80
2024-02-21T00:45:17.764Z,492.74
2024-02-21T00:45:29.800Z,492.78
2024-02-21T00:45:41.813Z,492.79
2024-02-21T00:45:53.775Z,492.84
2024-02-21T00:46:05.756Z,492.82
2024-02-21T00:46:17.779Z,492.73
2024-02-21T00:46:29.862Z,492.74
2024-02-21T00:46:41.817Z,492.70
2024-02-21T00:46:54.187Z,492.63
2024-02-21T00:47:04.758Z,492.55
2024-02-21T00:47:15.786Z,492.49
2024-02-21T00:47:27.829Z,492.58
2024-02-21T00:47:38.810Z,492.66
2024-02-21T00:47:50.784Z,492.58
2024-02-21T00:48:01.941Z,492.56
2024-02-21T00:48:12.763Z,492.50
2024-02-21T00:48:23.897Z,492.51
2024-02-21T00:48:35.813Z,492.57
2024-02-21T00:48:46.855Z,492.58
2024-02-21T00:48:57.799Z,492.55
2024-02-21T00:49:08.788Z,492.55
2024-02-21T00:49:20.764Z,492.57
2024-02-21T00:49:31.794Z,492.55
2024-02-21T00:49:43.820Z,492.56
2024-02-21T00:49:54.812Z,492.57
2024-02-21T00:50:17.754Z,492.68
2024-02-21T00:50:28.764Z,492.69
2024-02-21T00:50:40.763Z,492.69
2024-02-21T00:50:52.769Z,492.71
2024-02-21T00:51:04.772Z,492.66
2024-02-21T00:51:16.739Z,492.59
2024-02-21T00:51:28.728Z,492.58
2024-02-21T00:51:40.740Z,492.49
2024-02-21T00:51:51.730Z,492.58
2024-02-21T00:52:02.758Z,492.63
2024-02-21T00:52:13.890Z,492.62
2024-02-21T00:52:24.829Z,492.55
2024-02-21T00:52:35.842Z,492.62
2024-02-21T00:52:46.804Z,492.71
2024-02-21T00:52:57.822Z,492.65
2024-02-21T00:53:08.778Z,492.66
2024-02-21T00:53:20.778Z,492.72
2024-02-21T00:53:32.808Z,492.81
2024-02-21T00:53:44.776Z,492.83
2024-02-21T00:53:56.778Z,492.83
2024-02-21T00:54:08.764Z,492.90
2024-02-21T00:54:19.792Z,492.92
2024-02-21T00:54:40.574Z,492.95
2024-02-21T00:54:50.774Z,492.96
2024-02-21T00:54:55.731Z,493.09
2024-02-21T00:55:05.781Z,493.17
2024-02-21T00:55:16.798Z,493.11
2024-02-21T00:55:28.832Z,492.97
2024-02-21T00:55:40.786Z,493.11
2024-02-21T00:55:51.773Z,493.27
2024-02-21T00:56:02.820Z,493.42
2024-02-21T00:56:13.762Z,493.39
2024-02-21T00:56:24.833Z,493.37
2024-02-21T00:56:36.800Z,493.40
2024-02-21T00:56:48.800Z,493.51
2024-02-21T00:57:00.788Z,493.65
2024-02-21T00:57:12.786Z,493.71
2024-02-21T00:57:24.821Z,493.71
2024-02-21T00:57:35.739Z,493.74
2024-02-21T00:57:46.770Z,493.75
2024-02-21T00:57:58.754Z,493.79
2024-02-21T00:58:10.790Z,493.85
2024-02-21T00:58:21.809Z,493.98
2024-02-21T00:58:32.819Z,493.93
2024-02-21T00:58:43.889Z,493.99
2024-02-21T00:58:55.946Z,494.05
2024-02-21T00:59:07.819Z,494.09
2024-02-21T00:59:19.775Z,493.97
2024-02-21T00:59:31.768Z,493.85
2024-02-21T00:59:43.769Z,493.89
2024-02-21T00:59:55.778Z,493.87
2024-02-21T01:00:06.841Z,493.85
2024-02-21T01:00:17.795Z,493.94
2024-02-21T01:00:29.864Z,494.02
2024-02-21T01:00:40.761Z,494.04
2024-02-21T01:00:52.818Z,493.96
2024-02-21T01:01:03.752Z,493.85
2024-02-21T01:01:14.908Z,493.77
2024-02-21T01:01:26.958Z,493.70
2024-02-21T01:01:38.910Z,493.68
2024-02-21T01:01:50.824Z,493.69
2024-02-21T01:02:01.789Z,493.71
2024-02-21T01:02:13.954Z,493.75
2024-02-21T01:02:25.888Z,493.63
2024-02-21T01:02:36.735Z,493.69
2024-02-21T01:02:48.318Z,493.67
2024-02-21T01:02:59.781Z,493.72
2024-02-21T01:03:11.788Z,493.84
2024-02-21T01:03:23.793Z,493.95
2024-02-21T01:03:35.838Z,493.97
2024-02-21T01:03:47.784Z,493.98
2024-02-21T01:03:59.896Z,493.88
2024-02-21T01:04:10.846Z,493.86
2024-02-21T01:04:22.852Z,493.92
2024-02-21T01:04:33.755Z,493.97
2024-02-21T01:04:45.798Z,494.11
2024-02-21T01:04:56.784Z,494.12
2024-02-21T01:05:07.840Z,494.09
2024-02-21T01:05:18.825Z,494.21
2024-02-21T01:05:29.806Z,494.11
2024-02-21T01:05:41.816Z,494.27
2024-02-21T01:05:52.788Z,494.30
2024-02-21T01:06:04.792Z,494.26
2024-02-21T01:06:16.876Z,494.23
2024-02-21T01:06:27.836Z,494.18
2024-02-21T01:06:39.781Z,494.16
2024-02-21T01:06:50.809Z,494.36
2024-02-21T01:07:02.795Z,494.49
2024-02-21T01:07:14.848Z,494.48
2024-02-21T01:07:26.765Z,494.39
2024-02-21T01:07:37.807Z,494.30
2024-02-21T01:07:49.812Z,494.47
2024-02-21T01:08:01.812Z,494.47
2024-02-21T01:08:13.773Z,494.51
2024-02-21T01:08:24.772Z,494.59
2024-02-21T01:08:36.773Z,494.47
2024-02-21T01:08:48.791Z,494.43
2024-02-21T01:09:00.782Z,494.40
2024-02-21T01:09:12.748Z,494.45
2024-02-21T01:09:23.750Z,494.49
2024-02-21T01:09:34.782Z,494.64
2024-02-21T01:09:46.765Z,494.66
2024-02-21T01:09:57.770Z,494.69
2024-02-21T01:10:09.746Z,494.71
2024-02-21T01:10:20.749Z,494.70
2024-02-21T01:10:32.777Z,494.67
2024-02-21T01:10:43.839Z,494.55
2024-02-21T01:10:55.919Z,494.59
2024-02-21T01:11:06.970Z,494.72
2024-02-21T01:11:18.826Z,494.80
2024-02-21T01:11:30.779Z,494.80
2024-02-21T01:11:41.744Z,494.79
2024-02-21T01:11:52.821Z,494.91
2024-02-21T01:12:04.826Z,495.00
2024-02-21T01:12:15.784Z,494.99
2024-02-21T01:12:27.810Z,495.06
2024-02-21T01:12:38.754Z,495.15
2024-02-21T01:12:49.804Z,495.33
2024-02-21T01:13:01.817Z,495.58
2024-02-21T01:13:12.780Z,495.48
2024-02-21T01:13:23.787Z,495.45
2024-02-21T01:13:34.813Z,495.50
2024-02-21T01:13:45.892Z,495.50
2024-02-21T01:13:57.820Z,495.40
2024-02-21T01:14:09.793Z,495.59
2024-02-21T01:14:21.778Z,495.72
2024-02-21T01:14:33.780Z,495.70
2024-02-21T01:14:45.777Z,495.66
2024-02-21T01:14:57.768Z,495.67
2024-02-21T01:15:09.772Z,495.66
2024-02-21T01:15:20.776Z,495.66
2024-02-21T01:15:32.816Z,495.83
2024-02-21T01:15:44.791Z,495.78
2024-02-21T01:15:56.767Z,495.68
2024-02-21T01:16:08.740Z,495.63
2024-02-21T01:16:19.849Z,495.77
2024-02-21T01:16:30.742Z,495.93
2024-02-21T01:16:41.809Z,495.96
2024-02-21T01:16:53.929Z,495.90
2024-02-21T01:17:04.797Z,495.97
2024-02-21T01:17:16.760Z,496.03
2024-02-21T01:17:27.811Z,496.03
2024-02-21T01:17:38.854Z,496.17
2024-02-21T01:17:49.857Z,496.18
2024-02-21T01:18:02.326Z,496.17
2024-02-21T01:18:13.875Z,496.32
2024-02-21T01:18:25.834Z,496.23
2024-02-21T01:18:36.861Z,496.27
2024-02-21T01:18:48.837Z,496.32
2024-02-21T01:19:00.809Z,496.37
2024-02-21T01:19:12.862Z,496.35
2024-02-21T01:19:25.014Z,496.42
2024-02-21T01:19:35.795Z,496.44
2024-02-21T01:19:47.796Z,496.50
2024-02-21T01:20:00.003Z,496.57
2024-02-21T01:20:11.834Z,496.70
2024-02-21T01:20:22.778Z,496.72
2024-02-21T01:20:33.738Z,496.82
2024-02-21T01:20:45.720Z,496.82
2024-02-21T01:20:56.754Z,496.77
2024-02-21T01:21:07.761Z,496.87
2024-02-21T01:21:19.744Z,496.88
2024-02-21T01:21:30.748Z,496.91
2024-02-21T01:21:41.750Z,496.86
2024-02-21T01:21:53.780Z,496.98
2024-02-21T01:22:05.761Z,496.93
2024-02-21T01:22:16.818Z,496.93
2024-02-21T01:22:27.753Z,496.93
2024-02-21T01:22:38.823Z,496.95
2024-02-21T01:22:50.912Z,497.12
2024-02-21T01:23:01.844Z,497.01
2024-02-21T01:23:12.839Z,496.84
2024-02-21T01:23:23.758Z,497.10
2024-02-21T01:23:34.784Z,497.38
2024-02-21T01:23:46.768Z,497.36
2024-02-21T01:23:57.773Z,497.33
2024-02-21T01:24:09.782Z,497.29
2024-02-21T01:24:21.782Z,497.34
2024-02-21T01:24:33.750Z,497.31
2024-02-21T01:24:44.765Z,497.31
2024-02-21T01:24:56.758Z,497.38
2024-02-21T01:25:07.772Z,497.46
2024-02-21T01:25:19.816Z,497.35
2024-02-21T01:25:31.828Z,497.47
2024-02-21T01:25:43.827Z,497.65
2024-02-21T01:25:54.773Z,497.70
2024-02-21T01:26:06.787Z,497.64
2024-02-21T01:26:18.788Z,497.58
2024-02-21T01:26:30.789Z,497.53
2024-02-21T01:26:42.757Z,497.53
2024-02-21T01:26:54.769Z,497.52
2024-02-21T01:27:06.742Z,497.54
2024-02-21T01:27:17.770Z,497.51
2024-02-21T01:27:28.764Z,497.40
2024-02-21T01:27:39.737Z,497.31
2024-02-21T01:27:50.736Z,497.40
2024-02-21T01:28:02.752Z,497.33
2024-02-21T01:28:14.780Z,497.27
2024-02-21T01:28:26.781Z,497.43
2024-02-21T01:28:38.843Z,497.45
2024-02-21T01:28:49.754Z,497.43
2024-02-21T01:29:00.806Z,497.50
2024-02-21T01:29:12.900Z,497.57
2024-02-21T01:29:23.741Z,497.57
2024-02-21T01:29:34.742Z,497.63
2024-02-21T01:29:45.756Z,497.65
2024-02-21T01:29:56.783Z,497.77
2024-02-21T01:30:08.780Z,497.78
2024-02-21T01:30:20.776Z,497.62
2024-02-21T01:30:32.789Z,497.75
2024-02-21T01:30:44.761Z,497.92
2024-02-21T01:30:55.801Z,497.91
2024-02-21T01:31:06.767Z,497.81
2024-02-21T01:31:17.824Z,497.79
2024-02-21T01:31:28.781Z,497.78
2024-02-21T01:31:39.763Z,497.77
2024-02-21T01:31:50.831Z,497.79
2024-02-21T01:32:01.825Z,497.88
2024-02-21T01:32:12.761Z,497.83
2024-02-21T01:32:24.760Z,497.89
2024-02-21T01:32:35.783Z,497.88
2024-02-21T01:32:47.790Z,497.95
2024-02-21T01:32:58.802Z,498.01
2024-02-21T01:33:09.758Z,498.04
2024-02-21T01:33:20.799Z,498.18
2024-02-21T01:33:32.809Z,498.30
2024-02-21T01:33:44.779Z,498.22
2024-02-21T01:33:56.786Z,498.19
2024-02-21T01:34:07.738Z,498.23
2024-02-21T01:34:18.881Z,498.29
2024-02-21T01:34:32.833Z,498.30
2024-02-21T01:34:41.826Z,498.15
2024-02-21T01:34:53.883Z,498.08
2024-02-21T01:35:04.867Z,498.14
2024-02-21T01:35:15.941Z,498.12
2024-02-21T01:35:26.823Z,498.22
2024-02-21T01:35:37.921Z,498.27
2024-02-21T01:35:49.768Z,498.29
2024-02-21T01:36:00.902Z,498.33
2024-02-21T01:36:12.820Z,498.39
2024-02-21T01:36:24.759Z,498.42
2024-02-21T01:36:35.771Z,498.38
2024-02-21T01:36:47.748Z,498.47
2024-02-21T01:36:59.756Z,498.50
2024-02-21T01:37:10.850Z,498.57
2024-02-21T01:37:22.896Z,498.48
2024-02-21T01:37:33.836Z,498.45
2024-02-21T01:37:44.813Z,498.43
2024-02-21T01:37:55.798Z,498.51
2024-02-21T01:38:07.849Z,498.93
2024-02-21T01:38:19.817Z,499.04
2024-02-21T01:38:30.728Z,498.87
2024-02-21T01:38:41.796Z,498.87
2024-02-21T01:38:53.755Z,498.92
2024-02-21T01:39:04.791Z,498.90
2024-02-21T01:39:16.755Z,499.04
2024-02-21T01:39:28.760Z,498.97
2024-02-21T01:39:39.766Z,498.92
2024-02-21T01:39:51.798Z,499.02
2024-02-21T01:40:03.784Z,499.01
2024-02-21T01:40:15.791Z,498.96
2024-02-21T01:40:27.768Z,499.00
2024-02-21T01:40:39.850Z,499.15
2024-02-21T01:40:51.802Z,499.17
2024-02-21T01:41:03.844Z,499.12
2024-02-21T01:41:15.764Z,499.10
2024-02-21T01:41:27.742Z,499.19
2024-02-21T01:41:38.777Z,499.17
2024-02-21T01:41:49.769Z,499.25
2024-02-21T01:42:01.783Z,499.41
2024-02-21T01:42:13.779Z,499.42
2024-02-21T01:42:25.768Z,499.29
2024-02-21T01:42:37.759Z,499.22
2024-02-21T01:42:48.754Z,499.36
2024-02-21T01:42:59.781Z,499.53
2024-02-21T01:43:10.792Z,499.49
2024-02-21T01:43:21.898Z,499.56
2024-02-21T01:43:33.806Z,499.54
2024-02-21T01:43:44.741Z,499.44
2024-02-21T01:43:55.837Z,499.63
2024-02-21T01:44:07.761Z,499.64
2024-02-21T01:44:18.769Z,499.58
2024-02-21T01:44:30.753Z,499.40
2024-02-21T01:44:41.751Z,499.44
2024-02-21T01:44:53.752Z,499.67
2024-02-21T01:45:04.760Z,499.82
2024-02-21T01:45:18.706Z,499.93
2024-02-21T01:45:27.775Z,500.00
2024-02-21T01:45:39.770Z,500.04
2024-02-21T01:45:51.781Z,500.02
2024-02-21T01:46:03.753Z,500.01
2024-02-21T01:46:14.752Z,500.00
2024-02-21T01:46:25.752Z,500.04
2024-02-21T01:46:36.842Z,499.93
2024-02-21T01:46:47.770Z,499.97
2024-02-21T01:46:58.815Z,500.05
2024-02-21T01:47:09.749Z,500.03
2024-02-21T01:47:21.744Z,500.01
2024-02-21T01:47:33.753Z,499.92
2024-02-21T01:47:44.896Z,499.91
2024-02-21T01:47:55.891Z,500.05
2024-02-21T01:48:06.762Z,500.06
2024-02-21T01:48:17.848Z,500.05
2024-02-21T01:48:28.964Z,500.19
2024-02-21T01:48:40.944Z,500.13
2024-02-21T01:48:52.771Z,499.95
2024-02-21T01:49:04.843Z,499.92
2024-02-21T01:49:15.807Z,499.89
2024-02-21T01:49:26.778Z,499.77
2024-02-21T01:49:38.762Z,499.71
2024-02-21T01:49:49.850Z,499.80
2024-02-21T01:50:01.890Z,499.95
2024-02-21T01:50:13.746Z,499.91
2024-02-21T01:50:24.740Z,499.86
2024-02-21T01:50:36.731Z,499.80
2024-02-21T01:50:47.751Z,499.79
2024-02-21T01:50:59.910Z,499.81
2024-02-21T01:51:10.725Z,499.84
2024-02-21T01:51:21.738Z,499.83
2024-02-21T01:51:32.760Z,499.78
2024-02-21T01:51:44.751Z,499.83
2024-02-21T01:51:56.742Z,499.78
2024-02-21T01:52:07.779Z,499.64
2024-02-21T01:52:19.823Z,499.68
2024-02-21T01:52:30.797Z,499.68
2024-02-21T01:52:41.808Z,499.64
2024-02-21T01:52:52.783Z,499.56
2024-02-21T01:53:03.792Z,499.46
2024-02-21T01:53:14.733Z,499.47
2024-02-21T01:53:25.742Z,499.42
2024-02-21T01:53:36.757Z,499.37
2024-02-21T01:53:47.774Z,499.38
2024-02-21T01:53:59.826Z,499.51
2024-02-21T01:54:11.759Z,499.46
2024-02-21T01:54:22.760Z,499.52
2024-02-21T01:54:34.805Z,499.55
2024-02-21T01:54:45.734Z,499.59
2024-02-21T01:54:56.745Z,499.49
2024-02-21T01:55:07.773Z,499.44
2024-02-21T01:55:19.781Z,499.61
2024-02-21T01:55:31.806Z,499.60
2024-02-21T01:55:44.670Z,499.63
2024-02-21T01:55:53.817Z,499.68
2024-02-21T01:56:05.816Z,499.56
2024-02-21T01:56:17.702Z,499.77
2024-02-21T01:56:28.734Z,499.86
2024-02-21T01:56:39.814Z,499.75
2024-02-21T01:56:50.725Z,499.75
2024-02-21T01:57:01.763Z,499.87
2024-02-21T01:57:13.739Z,499.81
2024-02-21T01:57:24.749Z,499.92
2024-02-21T01:57:35.749Z,500.02
2024-02-21T01:57:46.779Z,500.05
2024-02-21T01:57:58.765Z,500.08
2024-02-21T01:58:10.734Z,500.21
2024-02-21T01:58:21.807Z,500.23
2024-02-21T01:58:32.757Z,500.21
2024-02-21T01:58:44.781Z,500.18
2024-02-21T01:58:56.884Z,500.08
2024-02-21T01:59:07.771Z,500.00
2024-02-21T01:59:19.748Z,500.15
2024-02-21T01:59:31.764Z,500.26
2024-02-21T01:59:43.740Z,500.28
2024-02-21T01:59:54.765Z,500.31
2024-02-21T02:00:06.748Z,500.33
2024-02-21T02:00:17.767Z,500.25
2024-02-21T02:00:29.821Z,500.31
2024-02-21T02:00:41.797Z,500.61
2024-02-21T02:00:52.768Z,500.62
2024-02-21T02:01:03.826Z,500.47
2024-02-21T02:01:17.938Z,500.39
2024-02-21T02:01:26.870Z,500.55
2024-02-21T02:01:37.821Z,500.41
2024-02-21T02:01:48.829Z,500.36
2024-02-21T02:01:59.931Z,500.45
2024-02-21T02:02:10.847Z,500.47
2024-02-21T02:02:22.908Z,500.40
2024-02-21T02:02:34.738Z,500.42
2024-02-21T02:02:45.734Z,500.50
2024-02-21T02:02:56.789Z,500.50
2024-02-21T02:03:07.823Z,500.38
2024-02-21T02:03:18.839Z,500.39
2024-02-21T02:03:30.772Z,500.45
2024-02-21T02:03:41.866Z,500.47
2024-02-21T02:03:53.894Z,500.40
2024-02-21T02:04:05.781Z,500.32
2024-02-21T02:04:17.824Z,500.38
2024-02-21T02:04:28.817Z,500.38
2024-02-21T02:04:39.898Z,500.51
2024-02-21T02:04:51.767Z,500.80
2024-02-21T02:05:03.844Z,500.79
2024-02-21T02:05:15.745Z,500.75
2024-02-21T02:05:26.759Z,500.69
2024-02-21T02:05:38.777Z,500.76
2024-02-21T02:05:50.739Z,500.75
2024-02-21T02:06:01.786Z,500.78
2024-02-21T02:06:13.745Z,500.85
2024-02-21T02:06:24.761Z,500.84
2024-02-21T02:06:36.781Z,500.91
2024-02-21T02:06:48.831Z,500.99
2024-02-21T02:06:59.924Z,501.12
2024-02-21T02:07:10.761Z,501.13
2024-02-21T02:07:22.822Z,501.29
2024-02-21T02:07:33.859Z,501.35
2024-02-21T02:07:45.798Z,501.33
2024-02-21T02:07:57.816Z,501.27
2024-02-21T02:08:09.936Z,501.35
2024-02-21T02:08:21.741Z,501.36
2024-02-21T02:08:32.763Z,501.38
2024-02-21T02:08:43.796Z,501.38
2024-02-21T02:08:55.813Z,501.43
2024-02-21T02:09:06.776Z,501.46
2024-02-21T02:09:18.771Z,501.52
2024-02-21T02:09:30.784Z,501.65
2024-02-21T02:09:42.777Z,501.58
2024-02-21T02:09:54.755Z,501.65
2024-02-21T02:10:05.781Z,501.66
2024-02-21T02:10:17.795Z,501.64
2024-02-21T02:10:29.878Z,501.73
2024-02-21T02:10:40.791Z,501.78
2024-02-21T02:10:52.863Z,501.87
2024-02-21T02:11:05.027Z,501.89
2024-02-21T02:11:15.899Z,501.88
2024-02-21T02:11:27.833Z,501.81
2024-02-21T02:11:38.835Z,501.83
2024-02-21T02:11:49.766Z,501.83
2024-02-21T02:12:01.784Z,502.00
2024-02-21T02:12:12.740Z,501.98
2024-02-21T02:12:23.757Z,501.99
2024-02-21T02:12:35.732Z,502.02
2024-02-21T02:12:46.722Z,502.30
2024-02-21T02:12:57.746Z,502.24
2024-02-21T02:13:08.757Z,502.20
2024-02-21T02:13:19.805Z,502.17
2024-02-21T02:13:30.779Z,502.17
2024-02-21T02:13:41.755Z,502.26
2024-02-21T02:13:52.895Z,502.33
2024-02-21T02:14:03.798Z,502.37
2024-02-21T02:14:15.772Z,502.48
2024-02-21T02:14:27.759Z,502.49
2024-02-21T02:14:38.761Z,502.47
2024-02-21T02:14:50.758Z,502.40
2024-02-21T02:15:02.757Z,502.51
2024-02-21T02:15:13.801Z,502.57
2024-02-21T02:15:25.777Z,502.47
2024-02-21T02:15:37.764Z,502.31
2024-02-21T02:15:48.815Z,502.50
2024-02-21T02:15:59.739Z,502.64
2024-02-21T02:16:10.752Z,502.57
2024-02-21T02:16:21.779Z,502.43
2024-02-21T02:16:33.817Z,502.46
2024-02-21T02:16:45.797Z,502.52
2024-02-21T02:16:57.831Z,502.53
2024-02-21T02:17:09.794Z,502.55
2024-02-21T02:17:21.799Z,502.67
2024-02-21T02:17:33.819Z,502.71
2024-02-21T02:17:44.742Z,502.68
2024-02-21T02:17:56.786Z,502.48
2024-02-21T02:18:07.864Z,502.43
2024-02-21T02:18:19.963Z,502.54
2024-02-21T02:18:32.010Z,502.61
2024-02-21T02:18:43.868Z,502.66
2024-02-21T02:18:55.921Z,502.52
2024-02-21T02:19:07.831Z,502.60
2024-02-21T02:19:20.078Z,502.55
2024-02-21T02:19:31.972Z,502.42
2024-02-21T02:19:42.882Z,502.52
2024-02-21T02:19:54.876Z,502.59
2024-02-21T02:20:05.811Z,502.72
2024-02-21T02:20:17.832Z,502.68
2024-02-21T02:20:30.004Z,502.59
2024-02-21T02:20:40.925Z,502.50
2024-02-21T02:20:52.767Z,502.54
2024-02-21T02:21:04.793Z,502.58
2024-02-21T02:21:16.785Z,502.64
2024-02-21T02:21:28.746Z,502.55
2024-02-21T02:21:40.753Z,502.48
2024-02-21T02:21:52.753Z,502.53
2024-02-21T02:22:03.753Z,502.57
2024-02-21T02:22:15.788Z,502.59
2024-02-21T02:22:27.781Z,502.58
2024-02-21T02:22:39.762Z,502.73
2024-02-21T02:22:51.819Z,502.73
2024-02-21T02:23:02.790Z,502.63
2024-02-21T02:23:13.725Z,502.70
2024-02-21T02:23:24.738Z,502.83
2024-02-21T02:23:35.753Z,502.87
2024-02-21T02:23:47.759Z,502.71
2024-02-21T02:23:58.751Z,502.73
2024-02-21T02:24:10.851Z,502.74
2024-02-21T02:24:21.770Z,502.78
2024-02-21T02:24:33.738Z,502.70
2024-02-21T02:24:44.735Z,502.59
2024-02-21T02:24:55.772Z,502.41
2024-02-21T02:25:07.762Z,502.38
2024-02-21T02:25:18.842Z,502.37
2024-02-21T02:25:30.797Z,502.34
2024-02-21T02:25:41.853Z,502.46
2024-02-21T02:25:52.932Z,502.50
2024-02-21T02:26:04.885Z,502.37
2024-02-21T02:26:15.722Z,502.23
2024-02-21T02:26:26.743Z,502.06
2024-02-21T02:26:37.759Z,502.20